Historique des mesures à Cassis (13260), France
Quotidien Résumé Juin 12, 2017 Unités:  Métrique    US   Métrique/US
« Précédent (Jour)
Suivant (Jour) »
Quotidien Hebdomadaire Mensuel Annuel Période au choix
  Maximum: Minimum: Moyenne:
Température: TemperatureC °C 22.3 °C 24.8 °C
Point de rosée: DewpointC °C 13.3 °C 16.8 °C
Humidité: Humidity % 46 % 58 %
Vitesse du vent: 0 km/h 0 km/h 3.7 km/h
Rafales: 0 km/h - -
Vent:- - SE
Pression: PressurehPa hPa 1010.0 hPa -
Précipitations: 0.0 mm    
Historical Graphs
 
 
Mesures pour : Juin 12, 2017
Heure Temperature Point de rosée Pression Vent Vitesse du vent Rafales Humidité Pluie (par heure) Conditions
TemperatureC °C DewpointC °C PressurehPa hPa Calm     Humidity % HourlyPrecipMM mm SoftwareType W/m2
00:10 22.9 °C 13.9 °C 1013.4 hPa North 2.9 km/h 5.6 km/h 57 % 0.0 mm open2300-1.11 W/m2
01:10 22.7 °C 13.4 °C 1013.1 hPa North 2.9 km/h 5.1 km/h 56 % 0.0 mm open2300-1.11 W/m2
02:10 22.7 °C 13.4 °C 1012.8 hPa ENE 9.8 km/h 9.8 km/h 56 % 0.0 mm open2300-1.11 W/m2
03:10 22.8 °C 13.5 °C 1012.4 hPa Calm     56 % 0.0 mm open2300-1.11 W/m2
04:11 22.3 °C 13.3 °C 1011.7 hPa Calm     57 % 0.0 mm open2300-1.11 W/m2
05:10 22.9 °C 13.9 °C 1011.7 hPa Calm   10.9 km/h 57 % 0.0 mm open2300-1.11 W/m2
06:10 22.3 °C 13.6 °C 1011.7 hPa NNW 5.6 km/h 5.6 km/h 58 % 0.0 mm open2300-1.11 W/m2
07:10 22.6 °C 13.9 °C 1012.1 hPa ENE 5.1 km/h 5.1 km/h 58 % 0.0 mm open2300-1.11 W/m2
08:10 25.5 °C 15.5 °C 1012.4 hPa SE 7.6 km/h 11.6 km/h 54 % 0.0 mm open2300-1.11 W/m2
09:10 24.2 °C 15.7 °C 1012.4 hPa ESE 1.8 km/h 1.8 km/h 59 % 0.0 mm open2300-1.11 W/m2
10:10 25.8 °C 19.2 °C 1012.4 hPa SSE 15 km/h 15 km/h 67 % 0.0 mm open2300-1.11 W/m2
11:11 29.0 °C 20.7 °C 1012.1 hPa SSE 5.1 km/h 12.2 km/h 61 % 0.0 mm open2300-1.11 W/m2
12:10 30.3 °C 21.1 °C 1012.4 hPa SSE 8.9 km/h 8.9 km/h 58 % 0.0 mm open2300-1.11 W/m2
13:10 31.0 °C 20.3 °C 1012.4 hPa Calm   8 km/h 53 % 0.0 mm open2300-1.11 W/m2
14:10 31.6 °C 18.5 °C 1012.1 hPa SE 3.4 km/h 14 km/h 46 % 0.0 mm open2300-1.11 W/m2
16:10 30.3 °C 20.8 °C 1011.4 hPa SE 9.3 km/h 9.3 km/h 57 % 0.0 mm open2300-1.11 W/m2
17:10 29.3 °C 21.0 °C 1011.1 hPa SE 8 km/h 8.9 km/h 61 % 0.0 mm open2300-1.11 W/m2
18:11 28.1 °C 20.6 °C 1010.7 hPa Calm   11.6 km/h 64 % 0.0 mm open2300-1.11 W/m2
19:10 27.3 °C 20.6 °C 1010.0 hPa SE 4.7 km/h 4.7 km/h 67 % 0.0 mm open2300-1.11 W/m2
20:10 26.3 °C 20.4 °C 1010.4 hPa Calm     70 % 0.0 mm open2300-1.11 W/m2
21:10 25.5 °C 20.1 °C 1010.0 hPa Calm     72 % 0.0 mm open2300-1.11 W/m2
22:10 24.9 °C 19.9 °C 1010.7 hPa Calm     74 % 0.0 mm open2300-1.11 W/m2
23:10 24.3 °C 19.8 °C 1011.1 hPa Calm     76 % 0.0 mm open2300-1.11 W/m2
Observations météo à CASSIS
WU-History script by Weather Underground - 1 mb